Data for 03/20/2015

Time Sea-Level Adjusted Pressure Absolute Pressure Temperature Relative Humidity Dew Point   
(mb) (inHg) (mb) (inHg) (C) (F) (%) (C) (F)
00:05 1020 30.12 849 25.07 6.9 44.4 38 -6.3 20.7
00:10 1020 30.12 849 25.07 6.7 44 39 -6.3 20.7
00:15 1020 30.12 849 25.07 6.4 43.6 40 -6.4 20.6
00:20 1020 30.12 849 25.07 6.9 44.5 36 -7 19.4
00:25 1020 30.12 849 25.07 7.2 44.9 36 -6.9 19.6
00:30 1020 30.12 849 25.07 7.2 45 36 -6.7 19.9
00:35 1020 30.12 849 25.07 7.1 44.8 36 -6.8 19.8
00:40 1020 30.12 849 25.07 7 44.7 36 -7.1 19.2
00:45 1020 30.12 849 25.07 7.1 44.7 37 -6.6 20
00:50 1020 30.12 849 25.07 6.8 44.3 38 -6.6 20
00:55 1020 30.12 849 25.07 7 44.6 37 -6.8 19.7
01:00 1020 30.12 849 25.07 7.1 44.7 36 -7 19.3
01:05 1020 30.12 849 25.07 7.2 45 35 -7.2 19
01:10 1020 30.12 849 25.07 7.4 45.3 35 -7.1 19.3
01:15 1020 30.12 849 25.07 7.3 45.2 35 -7.1 19.2
01:20 1020 30.12 849 25.07 7.4 45.2 35 -7.2 19.1
01:25 1020 30.12 849 25.07 7.4 45.4 35 -7 19.3
01:30 1020 30.12 849 25.07 7.4 45.4 35 -7.1 19.2
01:35 1020 30.12 849 25.07 7.3 45.2 35 -7.3 18.9
01:40 1020 30.12 849 25.07 7.4 45.4 34 -7.3 18.9
01:45 1020 30.12 849 25.07 7.3 45.1 36 -6.9 19.5
01:50 1020 30.12 849 25.07 7 44.6 36 -7 19.4
01:55 1020 30.12 849 25.07 6.9 44.3 37 -6.8 19.7
02:00 1020 30.12 849 25.07 6.7 44.1 37 -6.8 19.7
02:05 1020 30.12 849 25.07 6.3 43.4 40 -6.4 20.5
02:10 1020 30.12 849 25.07 6.2 43.2 38 -6.9 19.6
02:15 1020 30.12 849 25.07 6.8 44.2 36 -7.3 18.8
02:20 1020 30.12 849 25.07 7.1 44.7 36 -7.1 19.2
02:25 1020 30.12 849 25.07 7 44.6 36 -7.2 19.1
02:30 1020 30.12 849 25.07 7 44.7 35 -7.3 18.8
02:35 1020 30.12 849 25.07 7.2 44.9 34 -7.5 18.5
02:40 1020 30.12 849 25.07 7.4 45.4 34 -7.6 18.3
02:45 1020 30.12 849 25.07 7.6 45.6 33 -7.6 18.4
02:50 1020 30.12 849 25.07 7.7 45.9 33 -7.5 18.4
02:55 1020 30.12 849 25.07 7.6 45.7 34 -7.1 19.1
03:00 1020 30.12 849 25.07 7.2 45 36 -6.9 19.7
03:05 1020 30.12 849 25.07 6.4 43.6 41 -5.7 21.7
03:10 1020 30.12 849 25.07 5.3 41.5 43 -6.4 20.6
03:15 1020 30.12 849 25.07 5.2 41.4 42 -6.6 20.1
03:20 1020 30.12 849 25.07 5.5 42 42 -6.4 20.5
03:25 1020 30.12 849 25.07 5.3 41.5 43 -6.2 20.8
03:30 1020 30.12 849 25.07 5 41.1 43 -6.5 20.3
03:35 1020 30.12 849 25.07 5.2 41.3 43 -6.5 20.4
03:40 1020 30.12 849 25.07 5.2 41.3 43 -6.5 20.3
03:45 1020 30.12 849 25.07 5.1 41.2 44 -6.1 21.1
03:50 1020 30.12 849 25.07 4.6 40.3 47 -5.6 21.9
03:55 1020 30.12 849 25.07 4.2 39.6 47 -6 21.2
04:00 1020 30.12 849 25.07 4.1 39.5 48 -5.8 21.6
04:05 1020 30.12 849 25.07 4 39.1 48 -6.2 20.9
04:10 1020 30.12 849 25.07 4.5 40 45 -6.6 20.2
04:15 1020 30.12 849 25.07 4.9 40.9 43 -6.7 20
04:20 1020 30.12 849 25.07 5.1 41.1 44 -6.1 21
04:25 1020 30.12 849 25.07 5.1 41.1 43 -6.5 20.3
04:30 1020 30.12 849 25.07 5.3 41.5 41 -6.9 19.6
04:35 1020 30.12 849 25.07 5.3 41.6 41 -6.7 19.9
04:40 1020 30.12 849 25.07 5.1 41.1 43 -6.6 20.1
04:45 1020 30.12 849 25.07 4.8 40.6 44 -6.4 20.5
04:50 1020 30.12 849 25.07 4.7 40.5 44 -6.6 20.1
04:55 1020 30.12 849 25.07 4.8 40.7 44 -6.4 20.5
05:00 1020 30.12 849 25.07 4.5 40.1 47 -5.9 21.3
05:05 1020 30.12 850 25.1 3.9 39 49 -5.9 21.3
05:10 1020 30.12 850 25.1 3.5 38.3 50 -5.9 21.4
05:15 1020 30.12 850 25.1 3.1 37.6 51 -5.9 21.3
05:20 1020 30.12 850 25.1 2.9 37.3 52 -5.9 21.4
05:25 1021 30.15 850 25.1 2.6 36.7 55 -5.6 22
05:30 1021 30.15 850 25.1 2.4 36.3 54 -5.9 21.4
05:35 1021 30.15 850 25.1 2.6 36.6 54 -5.7 21.7
05:40 1021 30.15 850 25.1 2.7 36.9 53 -5.9 21.3
05:45 1021 30.15 850 25.1 2.8 37.1 52 -6.1 21
05:50 1021 30.15 850 25.1 3 37.5 50 -6.3 20.7
05:55 1020 30.12 850 25.1 3.1 37.6 49 -6.6 20.2
06:00 1020 30.12 850 25.1 3.1 37.5 49 -6.6 20.2
06:05 1021 30.15 850 25.1 3.1 37.5 50 -6.5 20.3
06:10 1021 30.15 850 25.1 3 37.4 50 -6.5 20.2
06:15 1021 30.15 850 25.1 3 37.4 50 -6.4 20.5
06:20 1021 30.15 850 25.1 2.9 37.3 52 -6.1 21.1
06:25 1021 30.15 850 25.1 2.9 37.2 51 -6.3 20.7
06:30 1021 30.15 850 25.1 2.6 36.8 52 -6.3 20.6
06:35 1021 30.15 850 25.1 2.2 36 54 -6.2 20.8
06:40 1021 30.15 850 25.1 2 35.7 52 -6.8 19.8
06:45 1021 30.15 850 25.1 2.8 37 47 -7.5 18.5
06:50 1021 30.15 850 25.1 3.5 38.4 45 -7.3 18.9
06:55 1021 30.15 850 25.1 3.6 38.4 47 -6.6 20.1
07:00 1021 30.15 850 25.1 3.1 37.5 50 -6.3 20.6
07:05 1021 30.15 850 25.1 2.8 37 51 -6.5 20.3
07:10 1021 30.15 850 25.1 2.9 37.2 48 -7.1 19.2
07:15 1021 30.15 850 25.1 3.7 38.7 45 -7.3 18.9
07:20 1021 30.15 850 25.1 4.1 39.3 46 -6.7 20
07:25 1021 30.15 850 25.1 3.9 39.1 45 -6.9 19.7
07:30 1021 30.15 850 25.1 4.2 39.6 44 -6.9 19.6
07:35 1021 30.15 850 25.1 4.6 40.3 43 -6.9 19.7
07:40 1021 30.15 850 25.1 5 40.9 42 -7 19.4
07:45 1021 30.15 850 25.1 5.5 41.9 41 -6.7 19.9
07:50 1021 30.15 850 25.1 6 42.8 39 -6.8 19.8
07:55 1021 30.15 850 25.1 6.6 43.8 39 -6.5 20.3
08:00 1021 30.15 850 25.1 7 44.7 37 -6.6 20.1
08:05 1021 30.15 850 25.1 7.4 45.3 37 -6.2 20.8
08:10 1021 30.15 850 25.1 7.8 46 35 -6.6 20.1
08:15 1021 30.15 850 25.1 8 46.5 35 -6.4 20.5
08:20 1021 30.15 850 25.1 8.4 47.1 34 -6.5 20.3
08:25 1021 30.15 850 25.1 8.7 47.7 33 -6.6 20.2
08:30 1021 30.15 850 25.1 9 48.3 35 -5.6 22
08:35 1021 30.15 850 25.1 9.2 48.5 34 -5.7 21.7
08:40 1021 30.15 851 25.13 9.4 48.9 34 -5.8 21.5
08:45 1021 30.15 851 25.13 9.4 49 33 -5.9 21.3
08:50 1021 30.15 850 25.1 9.6 49.3 31 -6.5 20.3
08:55 1021 30.15 850 25.1 10.1 50.1 31 -6.2 20.9
09:00 1021 30.15 850 25.1 10.8 51.5 27 -7.2 19
09:05 1021 30.15 851 25.13 11.2 52.2 26 -7.3 18.8
09:10 1021 30.15 851 25.13 11.7 53.1 27 -6.8 19.7
09:15 1021 30.15 851 25.13 11.8 53.2 26 -6.9 19.7
09:20 1022 30.18 851 25.13 12 53.5 27 -6.6 20.1
09:25 1022 30.18 851 25.13 11.6 52.9 27 -6.6 20
09:30 1022 30.18 851 25.13 11.6 52.8 26 -7.5 18.6
09:35 1022 30.18 851 25.13 11.4 52.6 26 -7.6 18.4
09:40 1021 30.15 851 25.13 11.5 52.6 27 -6.9 19.6
09:45 1022 30.18 851 25.13 12.1 53.7 25 -7.5 18.6
09:50 1021 30.15 851 25.13 12.5 54.6 25 -7 19.4
09:55 1021 30.15 851 25.13 12.7 54.8 24 -7.2 19
10:00 1021 30.15 851 25.13 13.5 56.4 24 -6.7 19.9
10:05 1021 30.15 851 25.13 13.7 56.7 24 -6.2 20.8
10:10 1021 30.15 851 25.13 13 55.3 25 -6.4 20.4
10:15 1022 30.18 851 25.13 12.4 54.3 25 -6.9 19.6
10:20 1022 30.18 851 25.13 13.6 56.5 24 -6.7 20
10:25 1022 30.18 851 25.13 14.2 57.5 24 -6.2 20.9
10:30 1022 30.18 851 25.13 13.3 55.9 25 -6.3 20.7
10:35 1022 30.18 851 25.13 13 55.4 23 -7.5 18.4
10:40 1021 30.15 851 25.13 13.9 57 22 -7.3 18.9
10:45 1021 30.15 851 25.13 14.3 57.7 23 -6.8 19.8
10:50 1021 30.15 851 25.13 14.8 58.6 22 -6.9 19.6
10:55 1021 30.15 850 25.1 14.6 58.2 20 -8.2 17.2
11:00 1021 30.15 850 25.1 14 57.2 23 -6.8 19.7
11:05 1021 30.15 850 25.1 14.4 57.9 21 -7.9 17.9
11:10 1021 30.15 850 25.1 15.3 59.6 19 -8.1 17.4
11:15 1021 30.15 850 25.1 16 60.7 18 -8.1 17.5
11:20 1021 30.15 850 25.1 15.9 60.7 19 -7.6 18.4
11:25 1021 30.15 850 25.1 15.7 60.2 19 -7.8 18
11:30 1021 30.15 850 25.1 15.7 60.3 17 -9.1 15.7
11:35 1021 30.15 850 25.1 16.1 61 17 -8.8 16.2
11:40 1021 30.15 850 25.1 16.6 62 15 -9.7 14.6
11:45 1021 30.15 850 25.1 17.2 63 15 -9.7 14.6
11:50 1021 30.15 850 25.1 16.3 61.3 16 -9.5 14.9
11:55 1021 30.15 850 25.1 15.4 59.6 17 -9.6 14.6
12:00 1021 30.15 850 25.1 15.9 60.6 16 -10.2 13.6
12:05 1021 30.15 850 25.1 16.8 62.2 15 -9.7 14.6
12:10 1021 30.15 850 25.1 16.9 62.3 15 -9.6 14.7
12:15 1021 30.15 850 25.1 16.9 62.4 16 -8.8 16.1
12:20 1021 30.15 850 25.1 16.5 61.8 17 -8.4 16.8
12:25 1020 30.12 850 25.1 15.8 60.5 16 -9.7 14.6
12:30 1020 30.12 850 25.1 16.6 62 16 -9.1 15.7
12:35 1020 30.12 850 25.1 16.7 62.1 16 -9.4 15
12:40 1020 30.12 849 25.07 17.5 63.6 15 -9.6 14.8
12:45 1020 30.12 849 25.07 16.6 61.9 15 -9.7 14.5
12:50 1020 30.12 849 25.07 17.5 63.6 14 -10 14.1
12:55 1020 30.12 849 25.07 18 64.3 15 -9 15.8
13:00 1020 30.12 849 25.07 17.7 63.8 14 -9.9 14.1
13:05 1020 30.12 849 25.07 17.9 64.1 14 -9.7 14.5
13:10 1020 30.12 849 25.07 17.7 63.9 15 -9.3 15.2
13:15 1020 30.12 849 25.07 18.1 64.6 15 -9.1 15.6
13:20 1020 30.12 849 25.07 17.8 64 15 -9.5 15
13:25 1020 30.12 849 25.07 18.2 64.8 14 -9.9 14.3
13:30 1020 30.12 849 25.07 17.9 64.3 14 -9.5 15
13:35 1020 30.12 849 25.07 18 64.5 15 -9.2 15.5
13:40 1019 30.09 849 25.07 17.6 63.8 15 -9.3 15.2
13:45 1019 30.09 849 25.07 17.2 62.9 14 -10.3 13.4
13:50 1019 30.09 848 25.04 17.5 63.5 15 -9.1 15.6
13:55 1019 30.09 848 25.04 18.3 64.9 14 -9.4 15.1
14:00 1019 30.09 848 25.04 17.5 63.4 15 -9.4 15.2
14:05 1019 30.09 848 25.04 17.2 63 15 -9.7 14.5
14:10 1019 30.09 848 25.04 17.6 63.7 15 -9.7 14.6
14:15 1019 30.09 848 25.04 18.4 65 14 -9.7 14.6
14:20 1019 30.09 848 25.04 18.4 65 14 -9.9 14.1
14:25 1019 30.09 848 25.04 18.4 65.1 13 -10.1 13.9
14:30 1019 30.09 848 25.04 18.2 64.8 14 -9.6 14.7
14:35 1019 30.09 848 25.04 18.6 65.5 13 -10 13.9
14:40 1019 30.09 848 25.04 18.1 64.6 14 -10 14.1
14:45 1019 30.09 848 25.04 18.4 65.1 14 -9.8 14.3
14:50 1018 30.06 848 25.04 18.5 65.3 13 -10.4 13.3
14:55 1018 30.06 848 25.04 18.7 65.7 13 -10.4 13.3
15:00 1018 30.06 848 25.04 18.5 65.3 12 -11.4 11.4
15:05 1018 30.06 848 25.04 18.8 65.9 12 -11.1 12
15:10 1018 30.06 848 25.04 18.7 65.6 12 -11 12.2
15:15 1018 30.06 848 25.04 18.9 65.9 12 -11.1 12.1
15:20 1018 30.06 847 25.01 19.3 66.7 12 -10.7 12.7
15:25 1018 30.06 847 25.01 19.7 67.5 12 -10.2 13.6
15:30 1018 30.06 847 25.01 19.9 67.8 12 -10.6 12.9
15:35 1018 30.06 847 25.01 19.3 66.8 12 -10.7 12.7
15:40 1018 30.06 847 25.01 18.6 65.6 13 -10.6 12.9
15:45 1018 30.06 847 25.01 18.9 66 12 -11.2 11.9
15:50 1018 30.06 847 25.01 19.2 66.6 12 -10.9 12.4
15:55 1018 30.06 847 25.01 19.3 66.7 12 -10.9 12.3
16:00 1018 30.06 847 25.01 19.6 67.3 11 -11.2 11.8
16:05 1018 30.06 847 25.01 19 66.2 11 -11.6 11.1
16:10 1018 30.06 847 25.01 18.7 65.7 11 -12.2 10
16:15 1018 30.06 847 25.01 19.1 66.5 11 -11.8 10.8
16:20 1018 30.06 847 25.01 18.9 66 11 -12 10.5
16:25 1018 30.06 847 25.01 18.9 66 12 -11.6 11.1
16:30 1018 30.06 847 25.01 18.6 65.5 11 -12.3 9.9
16:35 1018 30.06 847 25.01 18.5 65.3 11 -12.1 10.2
16:40 1018 30.06 847 25.01 18.1 64.6 12 -12 10.5
16:45 1018 30.06 847 25.01 18.1 64.6 12 -11.6 11.2
16:50 1018 30.06 847 25.01 18.4 65.1 12 -11.1 12
16:55 1018 30.06 847 25.01 18.5 65.2 12 -10.9 12.3
17:00 1018 30.06 847 25.01 18 64.5 13 -11 12.2
17:05 1018 30.06 847 25.01 17.8 64.1 14 -10.4 13.3
17:10 1018 30.06 847 25.01 17.5 63.5 13 -10.8 12.6
17:15 1018 30.06 847 25.01 17.3 63.1 14 -10.9 12.4
17:20 1018 30.06 847 25.01 17.3 63.2 13 -10.9 12.4
17:25 1018 30.06 847 25.01 17.6 63.6 13 -10.9 12.4
17:30 1018 30.06 847 25.01 17.4 63.3 14 -10.6 12.9
17:35 1018 30.06 847 25.01 17.6 63.7 14 -9.7 14.5
17:40 1018 30.06 847 25.01 17.6 63.7 14 -10.2 13.6
17:45 1018 30.06 847 25.01 17.4 63.3 14 -10.6 12.8
17:50 1018 30.06 847 25.01 17 62.5 14 -10.5 13
17:55 1018 30.06 847 25.01 16.6 61.9 14 -10.7 12.7
18:00 1018 30.06 847 25.01 16.2 61.2 14 -10.9 12.4
18:05 1018 30.06 847 25.01 16.1 60.9 14 -11.1 12
18:10 1018 30.06 847 25.01 15.9 60.7 15 -10.8 12.5
18:15 1018 30.06 847 25.01 15.7 60.2 15 -10.9 12.4
18:20 1018 30.06 847 25.01 15.6 60.1 16 -9.9 14.3
18:25 1018 30.06 847 25.01 15.6 60 15 -10.8 12.5
18:30 1018 30.06 847 25.01 15.4 59.8 15 -10.9 12.3
18:35 1018 30.06 847 25.01 15.3 59.5 15 -11 12.2
18:40 1018 30.06 847 25.01 15.2 59.3 17 -9.6 14.7
18:45 1018 30.06 847 25.01 14.5 58.2 20 -8.4 16.8
18:50 1018 30.06 847 25.01 14 57.2 22 -7.6 18.3
18:55 1018 30.06 847 25.01 13.6 56.5 21 -8 17.5
19:00 1018 30.06 847 25.01 13.5 56.4 21 -8.2 17.2
19:05 1018 30.06 847 25.01 13.3 55.9 24 -6.9 19.7
19:10 1018 30.06 847 25.01 12.4 54.2 26 -6.8 19.7
19:15 1018 30.06 847 25.01 12.1 53.7 24 -7.7 18.2
19:20 1018 30.06 847 25.01 12.1 53.7 25 -7.4 18.7
19:25 1018 30.06 847 25.01 11.7 53.1 26 -7.3 18.8
19:30 1018 30.06 847 25.01 11.5 52.6 26 -7.5 18.5
19:35 1018 30.06 847 25.01 11.3 52.3 26 -7.5 18.5
19:40 1018 30.06 847 25.01 11.1 52 28 -6.8 19.7
19:45 1018 30.06 847 25.01 10.6 51 29 -6.6 20.2
19:50 1018 30.06 847 25.01 10.1 50.3 28 -7.5 18.5
19:55 1018 30.06 847 25.01 10.4 50.7 27 -7.8 17.9
20:00 1018 30.06 847 25.01 10.7 51.3 27 -7.3 18.9
20:05 1018 30.06 847 25.01 10.4 50.7 28 -7.3 18.8
20:10 1018 30.06 847 25.01 10.5 50.9 28 -7 19.3
20:15 1018 30.06 847 25.01 10.5 50.8 28 -7.2 19
20:20 1018 30.06 847 25.01 10.7 51.3 26 -7.8 17.9
20:25 1018 30.06 847 25.01 11 51.7 27 -7.5 18.4
20:30 1018 30.06 847 25.01 10.6 51.1 27 -7.5 18.4
20:35 1018 30.06 847 25.01 10.3 50.6 27 -7.7 18.2
20:40 1018 30.06 847 25.01 10.2 50.4 28 -7.6 18.3
20:45 1018 30.06 847 25.01 10.1 50.2 28 -7.5 18.6
20:50 1018 30.06 847 25.01 10.1 50.2 28 -7.3 18.8
20:55 1018 30.06 847 25.01 10.1 50.1 28 -7.6 18.3
21:00 1018 30.06 847 25.01 10.2 50.3 28 -7.5 18.4
21:05 1018 30.06 847 25.01 10.5 50.9 27 -7.8 17.9
21:10 1018 30.06 847 25.01 10.4 50.7 28 -7.5 18.4
21:15 1018 30.06 847 25.01 9.9 49.9 28 -7.5 18.5
21:20 1018 30.06 847 25.01 9.8 49.6 28 -8 17.5
21:25 1018 30.06 847 25.01 9.7 49.5 29 -7.5 18.6
21:30 1018 30.06 847 25.01 9.5 49 29 -7.6 18.4
21:35 1018 30.06 847 25.01 9.6 49.2 28 -8 17.5
21:40 1018 30.06 847 25.01 9.7 49.4 28 -8 17.7
21:45 1018 30.06 847 25.01 9.7 49.5 28 -7.8 18
21:50 1018 30.06 847 25.01 9.7 49.5 28 -8.1 17.4
21:55 1018 30.06 847 25.01 9.7 49.4 28 -7.9 17.8
22:00 1018 30.06 847 25.01 9.5 49.1 29 -7.8 17.9
22:05 1018 30.06 847 25.01 9.3 48.8 29 -7.8 18
22:10 1018 30.06 847 25.01 9.2 48.5 30 -7.7 18.2
22:15 1018 30.06 847 25.01 9.1 48.3 29 -7.8 17.9
22:20 1018 30.06 847 25.01 9.1 48.5 29 -7.8 17.9
22:25 1018 30.06 847 25.01 9.4 48.9 29 -7.9 17.8
22:30 1018 30.06 847 25.01 9.4 48.9 28 -8.1 17.5
22:35 1018 30.06 847 25.01 9.5 49.1 28 -8.1 17.4
22:40 1018 30.06 847 25.01 9.7 49.4 28 -7.8 17.9
22:45 1018 30.06 847 25.01 9.5 49.2 29 -7.8 18
22:50 1018 30.06 847 25.01 9.4 48.9 29 -7.9 17.8
22:55 1018 30.06 847 25.01 9.3 48.7 29 -7.8 17.9
23:00 1018 30.06 847 25.01 9.2 48.6 29 -7.8 18
23:05 1018 30.06 848 25.04 9.1 48.3 30 -7.4 18.6
23:10 1018 30.06 848 25.04 8.8 47.8 30 -7.9 17.9
23:15 1018 30.06 847 25.01 8.9 48 31 -7.4 18.7
23:20 1018 30.06 847 25.01 8.7 47.6 30 -7.9 17.9
23:25 1018 30.06 847 25.01 8.8 47.8 31 -7.3 18.9
23:30 1018 30.06 847 25.01 8.4 47.2 32 -7.5 18.5
23:35 1018 30.06 847 25.01 8.3 47 32 -7.5 18.6
23:40 1018 30.06 848 25.04 8.2 46.7 33 -7.3 18.9
23:45 1018 30.06 848 25.04 8.1 46.6 32 -7.5 18.6
23:50 1018 30.06 848 25.04 8.1 46.5 33 -7.4 18.7
23:55 1018 30.06 847 25.01 8 46.4 32 -7.5 18.5
24:00 1018 30.06 847 25.01 8.1 46.6 33 -7.3 18.8